Time;durP1;ratioP1;P1;durP2;ratioP2;P2;SDS_P1;SDS_P2;PMS_P1;PMS_P2;Temp;Humidity;BMP_temperature;BMP_pressure;BME280_temperature;BME280_humidity;BME280_pressure;Samples;Min_cycle;Max_cycle;Signal;HPM_P1;HPM_P2
2022/01/21 00:01:11;;;;;;;0.40;0.30;;;;;;;;;;5053885;28;20031;-69
2022/01/21 00:03:36;;;;;;;0.30;0.20;;;;;;;;;;5053757;28;20472;-70
2022/01/21 00:06:02;;;;;;;0.65;0.20;;;;;;;;;;5053785;28;20036;-69
2022/01/21 00:08:27;;;;;;;0.30;0.10;;;;;;;;;;5053799;28;20110;-70
2022/01/21 00:10:52;;;;;;;0.20;0.13;;;;;;;;;;5054046;28;20017;-70
2022/01/21 00:13:24;;;;;;;0.97;0.40;;;;;;;;;;5052223;28;20547;-70
2022/01/21 00:15:49;;;;;;;0.90;0.45;;;;;;;;;;5053952;28;20104;-70
2022/01/21 00:18:14;;;;;;;1.65;0.28;;;;;;;;;;5053668;28;20100;-69
2022/01/21 00:31:35;;;;;;;0.40;0.20;;;;;;;;;;5053829;28;20059;-70
2022/01/21 00:34:00;;;;;;;1.17;0.20;;;;;;;;;;5053495;28;20025;-70
2022/01/21 00:36:26;;;;;;;0.40;0.20;;;;;;;;;;5052040;28;20036;-70
2022/01/21 00:38:53;;;;;;;0.25;0.13;;;;;;;;;;5053391;28;20333;-70
2022/01/21 00:41:22;;;;;;;0.25;0.17;;;;;;;;;;5052973;28;20020;-69
2022/01/21 00:43:47;;;;;;;0.20;0.20;;;;;;;;;;5053268;28;20086;-70
2022/01/21 00:46:13;;;;;;;0.65;0.20;;;;;;;;;;5053417;28;20017;-69
2022/01/21 00:48:38;;;;;;;0.57;0.30;;;;;;;;;;5053567;28;20120;-69
2022/01/21 00:51:03;;;;;;;0.20;0.20;;;;;;;;;;5053327;28;20020;-70
2022/01/21 00:53:29;;;;;;;0.15;0.10;;;;;;;;;;5052831;28;20016;-70
2022/01/21 00:55:54;;;;;;;0.10;0.03;;;;;;;;;;5053166;28;20036;-69
2022/01/21 00:58:19;;;;;;;0.15;0.10;;;;;;;;;;5052928;28;20384;-69
2022/01/21 01:00:44;;;;;;;0.40;0.10;;;;;;;;;;5053026;28;20036;-70
2022/01/21 01:03:10;;;;;;;1.50;0.10;;;;;;;;;;5052801;28;20510;-70
2022/01/21 01:05:35;;;;;;;0.75;0.40;;;;;;;;;;5052416;28;20270;-69
2022/01/21 01:08:02;;;;;;;0.30;0.10;;;;;;;;;;5052949;28;20025;-68
2022/01/21 01:21:27;;;;;;;0.30;0.20;;;;;;;;;;5030238;28;20543;-69
2022/01/21 01:27:35;;;;;;;0.20;0.10;;;;;;;;;;5029967;28;20123;-69
2022/01/21 01:29:31;;;;;;;1.13;0.30;;;;;;;;;;5029762;28;20111;-70
2022/01/21 01:31:56;;;;;;;0.97;0.20;;;;;;;;;;5030249;28;20033;-69
2022/01/21 01:34:21;;;;;;;0.10;0.00;;;;;;;;;;5029872;28;20291;-69
2022/01/21 01:36:47;;;;;;;0.45;0.13;;;;;;;;;;5030136;28;20259;-69
2022/01/21 01:39:17;;;;;;;0.65;0.20;;;;;;;;;;5029705;28;20066;-69
2022/01/21 01:42:35;;;;;;;0.60;0.22;;;;;;;;;;5030057;28;20021;-69
2022/01/21 01:49:56;;;;;;;0.13;0.10;;;;;;;;;;5037874;28;20487;-69
2022/01/21 01:52:21;;;;;;;0.40;0.20;;;;;;;;;;5050670;28;20021;-69
2022/01/21 01:54:48;;;;;;;0.15;0.10;;;;;;;;;;5052239;28;20029;-70
2022/01/21 01:57:13;;;;;;;0.63;0.20;;;;;;;;;;5051755;28;20017;-69
2022/01/21 01:59:38;;;;;;;0.20;0.20;;;;;;;;;;5051986;28;20028;-69
2022/01/21 02:02:12;;;;;;;0.22;0.05;;;;;;;;;;5052059;28;20021;-69
2022/01/21 02:04:37;;;;;;;1.10;0.50;;;;;;;;;;5059428;23;20041;-70
2022/01/21 02:07:03;;;;;;;0.35;0.20;;;;;;;;;;5050633;28;20044;-68
2022/01/21 02:09:28;;;;;;;0.55;0.20;;;;;;;;;;5051606;28;20032;-69
2022/01/21 02:11:54;;;;;;;0.10;0.10;;;;;;;;;;5052080;28;20060;-69
2022/01/21 02:14:27;;;;;;;0.20;0.20;;;;;;;;;;5050525;28;20025;-70
2022/01/21 02:22:08;;;;;;;0.38;0.20;;;;;;;;;;5051811;28;20031;-69
2022/01/21 02:24:46;;;;;;;0.35;0.10;;;;;;;;;;5051798;28;20029;-69
2022/01/21 02:27:12;;;;;;;0.22;0.10;;;;;;;;;;5050319;28;20021;-69
2022/01/21 02:29:45;;;;;;;1.20;0.28;;;;;;;;;;5051639;28;20490;-70
2022/01/21 02:32:11;;;;;;;1.27;0.30;;;;;;;;;;5051698;28;20471;-69
2022/01/21 02:34:36;;;;;;;0.45;0.13;;;;;;;;;;5051761;28;20028;-70
2022/01/21 02:37:02;;;;;;;0.55;0.20;;;;;;;;;;5054021;28;20020;-69
2022/01/21 02:39:27;;;;;;;0.43;0.10;;;;;;;;;;5055273;28;20016;-70
2022/01/21 02:41:52;;;;;;;0.30;0.15;;;;;;;;;;5055676;28;20495;-70
2022/01/21 02:44:18;;;;;;;0.20;0.20;;;;;;;;;;5055395;28;20464;-70
2022/01/21 02:46:44;;;;;;;0.20;0.20;;;;;;;;;;5055594;28;20381;-69
2022/01/21 02:49:10;;;;;;;0.47;0.08;;;;;;;;;;5055606;28;20013;-70
2022/01/21 02:51:35;;;;;;;0.43;0.20;;;;;;;;;;5055755;28;20458;-70
2022/01/21 02:54:04;;;;;;;0.70;0.20;;;;;;;;;;5055410;28;20456;-69
2022/01/21 02:56:30;;;;;;;0.43;0.03;;;;;;;;;;5055256;28;20254;-69
2022/01/21 02:58:55;;;;;;;0.25;0.13;;;;;;;;;;5055381;28;20024;-70
2022/01/21 03:01:21;;;;;;;0.75;0.20;;;;;;;;;;5053443;28;20466;-68
2022/01/21 03:03:46;;;;;;;0.38;0.13;;;;;;;;;;5055253;28;20017;-69
2022/01/21 03:06:14;;;;;;;0.00;0.00;;;;;;;;;;5054825;28;20099;-69
2022/01/21 03:08:39;;;;;;;0.30;0.20;;;;;;;;;;5055178;28;20079;-70
2022/01/21 03:11:05;;;;;;;0.10;0.10;;;;;;;;;;5055226;28;20029;-69
2022/01/21 03:13:30;;;;;;;0.87;0.40;;;;;;;;;;5054711;28;20274;-69
2022/01/21 03:15:55;;;;;;;0.17;0.10;;;;;;;;;;5055006;28;20256;-69
2022/01/21 03:18:20;;;;;;;0.43;0.20;;;;;;;;;;5053392;28;20027;-70
2022/01/21 03:20:46;;;;;;;0.20;0.20;;;;;;;;;;5054972;28;20755;-70
2022/01/21 03:23:16;;;;;;;0.20;0.20;;;;;;;;;;5054554;28;20017;-68
2022/01/21 03:25:42;;;;;;;0.75;0.28;;;;;;;;;;5054989;28;20044;-69
2022/01/21 03:28:08;;;;;;;1.15;0.30;;;;;;;;;;5054691;28;20016;-69
2022/01/21 03:30:33;;;;;;;0.15;0.10;;;;;;;;;;5054613;28;20017;-69
2022/01/21 03:32:58;;;;;;;0.70;0.20;;;;;;;;;;5054750;28;20096;-69
2022/01/21 03:35:23;;;;;;;0.60;0.25;;;;;;;;;;5054136;28;20456;-69
2022/01/21 03:37:49;;;;;;;0.63;0.23;;;;;;;;;;5053395;28;20013;-69
2022/01/21 03:40:14;;;;;;;0.37;0.20;;;;;;;;;;5054369;28;20315;-69
2022/01/21 03:42:39;;;;;;;0.53;0.20;;;;;;;;;;5053156;28;20737;-69
2022/01/21 03:45:04;;;;;;;0.50;0.20;;;;;;;;;;5054243;28;20309;-68
2022/01/21 03:47:29;;;;;;;0.22;0.17;;;;;;;;;;5053735;28;20025;-68
2022/01/21 03:49:59;;;;;;;1.03;0.40;;;;;;;;;;5054423;28;20021;-69
2022/01/21 03:52:24;;;;;;;0.90;0.30;;;;;;;;;;5054122;28;20024;-69
2022/01/21 03:54:49;;;;;;;0.30;0.10;;;;;;;;;;5054283;28;20017;-69
2022/01/21 03:57:15;;;;;;;1.50;0.30;;;;;;;;;;5053898;28;20025;-68
2022/01/21 03:59:40;;;;;;;0.80;0.10;;;;;;;;;;5054400;28;20280;-69
2022/01/21 04:02:06;;;;;;;0.20;0.10;;;;;;;;;;5054080;28;20013;-69
2022/01/21 04:04:32;;;;;;;0.75;0.20;;;;;;;;;;5053919;28;20048;-69
2022/01/21 04:06:57;;;;;;;0.38;0.10;;;;;;;;;;5054017;28;20037;-69
2022/01/21 04:09:22;;;;;;;0.40;0.20;;;;;;;;;;5052156;28;20053;-68
2022/01/21 04:11:47;;;;;;;0.90;0.30;;;;;;;;;;5053961;28;20571;-69
2022/01/21 04:14:12;;;;;;;0.10;0.10;;;;;;;;;;5053794;28;20250;-69
2022/01/21 04:16:38;;;;;;;1.07;0.40;;;;;;;;;;5054140;28;20025;-69
2022/01/21 04:19:03;;;;;;;0.10;0.10;;;;;;;;;;5053715;28;20673;-69
2022/01/21 04:21:28;;;;;;;0.35;0.20;;;;;;;;;;5053433;28;20029;-69
2022/01/21 04:23:53;;;;;;;0.35;0.17;;;;;;;;;;5053804;28;20029;-69
2022/01/21 04:26:18;;;;;;;0.40;0.30;;;;;;;;;;5053207;28;20025;-69
2022/01/21 04:28:43;;;;;;;0.83;0.20;;;;;;;;;;5054030;28;20284;-70
2022/01/21 04:31:09;;;;;;;0.30;0.30;;;;;;;;;;5053336;28;20714;-69
2022/01/21 04:33:34;;;;;;;0.30;0.23;;;;;;;;;;5053276;28;20028;-69
2022/01/21 04:35:59;;;;;;;0.30;0.20;;;;;;;;;;5053585;28;20254;-70
2022/01/21 04:38:25;;;;;;;0.17;0.13;;;;;;;;;;5053278;28;20025;-69
2022/01/21 04:41:02;;;;;;;0.75;0.30;;;;;;;;;;5053745;28;20397;-69
2022/01/21 04:48:55;;;;;;;0.50;0.13;;;;;;;;;;5053371;28;20036;-69
2022/01/21 04:51:26;;;;;;;0.38;0.20;;;;;;;;;;5052765;28;20440;-68
2022/01/21 04:53:51;;;;;;;0.73;0.20;;;;;;;;;;5053052;28;20044;-69
2022/01/21 04:56:17;;;;;;;0.53;0.30;;;;;;;;;;5052967;28;20452;-68
2022/01/21 04:58:42;;;;;;;0.65;0.10;;;;;;;;;;5052378;28;20257;-69
2022/01/21 05:01:08;;;;;;;0.22;0.20;;;;;;;;;;5052895;28;20035;-69
2022/01/21 05:03:34;;;;;;;0.30;0.17;;;;;;;;;;5052591;28;20033;-69
2022/01/21 05:06:00;;;;;;;0.47;0.20;;;;;;;;;;5052734;28;20052;-69
2022/01/21 05:08:38;;;;;;;0.38;0.38;;;;;;;;;;5052617;28;20472;-70
2022/01/21 05:11:04;;;;;;;0.20;0.20;;;;;;;;;;5052752;28;20032;-69
2022/01/21 05:13:37;;;;;;;0.20;0.20;;;;;;;;;;5052443;28;20372;-69
2022/01/21 05:16:06;;;;;;;0.20;0.10;;;;;;;;;;5052743;28;20044;-68
2022/01/21 05:18:32;;;;;;;0.50;0.22;;;;;;;;;;5052649;28;20104;-69
2022/01/21 05:20:57;;;;;;;0.20;0.17;;;;;;;;;;5052778;28;20108;-69
2022/01/21 05:23:23;;;;;;;0.43;0.20;;;;;;;;;;5052102;28;20025;-69
2022/01/21 05:25:48;;;;;;;0.70;0.10;;;;;;;;;;5052796;28;20392;-68
2022/01/21 05:28:13;;;;;;;0.17;0.15;;;;;;;;;;5052404;28;20021;-69
2022/01/21 05:30:38;;;;;;;0.25;0.17;;;;;;;;;;5052485;28;20464;-69
2022/01/21 05:33:03;;;;;;;0.45;0.20;;;;;;;;;;5052433;28;20029;-69
2022/01/21 05:35:29;;;;;;;0.20;0.10;;;;;;;;;;5052086;28;20025;-69
2022/01/21 05:37:54;;;;;;;1.20;0.43;;;;;;;;;;5052403;28;20020;-69
2022/01/21 05:40:20;;;;;;;0.20;0.10;;;;;;;;;;5052230;28;20029;-68
2022/01/21 05:42:45;;;;;;;1.27;0.20;;;;;;;;;;5052297;28;20156;-69
2022/01/21 05:47:54;;;;;;;0.20;0.20;;;;;;;;;;5052380;28;20190;-69
2022/01/21 05:50:20;;;;;;;0.47;0.22;;;;;;;;;;5052086;28;20025;-69
2022/01/21 05:52:47;;;;;;;0.45;0.20;;;;;;;;;;5052318;28;20053;-69
2022/01/21 05:55:12;;;;;;;0.40;0.35;;;;;;;;;;5051978;28;20055;-69
2022/01/21 05:57:37;;;;;;;0.30;0.20;;;;;;;;;;5051955;28;20052;-69
2022/01/21 06:00:03;;;;;;;0.25;0.20;;;;;;;;;;5052234;28;20029;-69
2022/01/21 06:02:28;;;;;;;0.35;0.30;;;;;;;;;;5051746;28;20107;-69
2022/01/21 06:04:55;;;;;;;0.23;0.10;;;;;;;;;;5051919;28;20463;-69
2022/01/21 06:07:20;;;;;;;0.30;0.10;;;;;;;;;;5051520;28;20454;-68
2022/01/21 06:09:45;;;;;;;0.17;0.10;;;;;;;;;;5052369;28;20395;-68
2022/01/21 06:12:11;;;;;;;0.47;0.47;;;;;;;;;;5056061;28;20488;-68
2022/01/21 06:14:37;;;;;;;0.20;0.20;;;;;;;;;;5056222;28;20031;-69
2022/01/21 06:17:02;;;;;;;0.15;0.10;;;;;;;;;;5056143;28;20305;-69
2022/01/21 06:19:28;;;;;;;0.22;0.10;;;;;;;;;;5054465;28;20025;-68
2022/01/21 06:21:53;;;;;;;0.20;0.20;;;;;;;;;;5056136;28;20419;-68
2022/01/21 06:24:18;;;;;;;0.20;0.10;;;;;;;;;;5055773;28;20036;-69
2022/01/21 06:26:45;;;;;;;0.23;0.10;;;;;;;;;;5055953;28;20075;-69
2022/01/21 06:29:10;;;;;;;0.52;0.25;;;;;;;;;;5055659;28;20656;-69
2022/01/21 06:31:35;;;;;;;0.20;0.10;;;;;;;;;;5055674;28;20017;-69
2022/01/21 06:34:00;;;;;;;0.25;0.13;;;;;;;;;;5054554;28;20246;-69
2022/01/21 06:36:25;;;;;;;0.88;0.20;;;;;;;;;;5055685;28;20033;-69
2022/01/21 06:38:50;;;;;;;0.90;0.10;;;;;;;;;;5054483;28;20473;-69
2022/01/21 06:41:16;;;;;;;0.17;0.10;;;;;;;;;;5055310;28;20444;-69
2022/01/21 06:43:41;;;;;;;0.57;0.10;;;;;;;;;;5055483;28;20025;-69
2022/01/21 06:46:08;;;;;;;0.43;0.32;;;;;;;;;;5055465;28;20380;-69
2022/01/21 06:48:33;;;;;;;1.10;0.20;;;;;;;;;;5055513;28;20048;-69
2022/01/21 06:50:59;;;;;;;0.35;0.10;;;;;;;;;;5055565;28;20045;-69
2022/01/21 06:53:24;;;;;;;0.10;0.10;;;;;;;;;;5054998;28;20021;-68
2022/01/21 06:55:49;;;;;;;0.10;0.10;;;;;;;;;;5055397;28;20017;-69
2022/01/21 06:58:14;;;;;;;0.30;0.20;;;;;;;;;;5055278;28;20025;-69
2022/01/21 07:00:39;;;;;;;0.20;0.10;;;;;;;;;;5055312;28;20256;-69
2022/01/21 07:03:05;;;;;;;0.50;0.20;;;;;;;;;;5052691;28;20531;-68
2022/01/21 07:05:30;;;;;;;0.30;0.25;;;;;;;;;;5040375;28;20087;-70
2022/01/21 07:07:56;;;;;;;0.20;0.10;;;;;;;;;;5043616;28;20024;-68
2022/01/21 07:10:22;;;;;;;0.95;0.45;;;;;;;;;;5055193;28;20048;-69
2022/01/21 07:12:47;;;;;;;0.40;0.10;;;;;;;;;;5053409;28;20049;-69
2022/01/21 07:15:15;;;;;;;0.20;0.20;;;;;;;;;;5053323;28;20105;-68
2022/01/21 07:17:41;;;;;;;0.20;0.20;;;;;;;;;;5055065;28;20686;-69
2022/01/21 07:20:07;;;;;;;0.38;0.30;;;;;;;;;;5063560;28;20067;-69
2022/01/21 07:22:32;;;;;;;0.15;0.15;;;;;;;;;;5067650;28;20048;-68
2022/01/21 07:24:58;;;;;;;0.63;0.10;;;;;;;;;;5054289;28;20361;-69
2022/01/21 07:27:23;;;;;;;0.30;0.10;;;;;;;;;;5064168;28;20029;-69
2022/01/21 07:29:48;;;;;;;0.10;0.10;;;;;;;;;;5055081;28;20150;-69
2022/01/21 07:32:14;;;;;;;5.65;0.15;;;;;;;;;;5070033;28;20103;-69
2022/01/21 07:34:39;;;;;;;0.70;0.10;;;;;;;;;;5063360;28;20556;-69
2022/01/21 07:37:04;;;;;;;0.33;0.13;;;;;;;;;;5057210;28;20021;-68
2022/01/21 07:39:29;;;;;;;0.10;0.10;;;;;;;;;;5053758;28;20265;-69
2022/01/21 07:41:54;;;;;;;0.87;0.20;;;;;;;;;;5053965;28;20036;-68
2022/01/21 07:44:20;;;;;;;0.60;0.20;;;;;;;;;;5050723;28;22537;-68
2022/01/21 07:46:46;;;;;;;0.32;0.17;;;;;;;;;;5053428;28;20020;-69
2022/01/21 07:49:11;;;;;;;0.43;0.10;;;;;;;;;;5053435;28;20028;-68
2022/01/21 07:51:37;;;;;;;0.10;0.05;;;;;;;;;;5049765;28;20031;-66
2022/01/21 07:54:02;;;;;;;0.13;0.10;;;;;;;;;;5053265;28;20061;-67
2022/01/21 07:56:27;;;;;;;0.57;0.20;;;;;;;;;;5053085;28;20028;-67
2022/01/21 07:58:53;;;;;;;0.60;0.17;;;;;;;;;;5053515;28;20017;-67
2022/01/21 08:01:18;;;;;;;0.20;0.20;;;;;;;;;;5053908;28;20020;-67
2022/01/21 08:03:43;;;;;;;1.30;0.20;;;;;;;;;;5054114;28;20063;-67
2022/01/21 08:06:09;;;;;;;1.25;0.57;;;;;;;;;;5052875;28;20095;-68
2022/01/21 08:08:34;;;;;;;0.37;0.20;;;;;;;;;;5053602;28;20468;-67
2022/01/21 08:10:59;;;;;;;0.38;0.20;;;;;;;;;;5053436;28;20360;-67
2022/01/21 08:13:27;;;;;;;0.25;0.10;;;;;;;;;;5053229;28;20464;-67
2022/01/21 08:15:52;;;;;;;0.55;0.20;;;;;;;;;;5053075;28;20031;-67
2022/01/21 08:18:17;;;;;;;0.30;0.20;;;;;;;;;;5052912;28;20115;-66
2022/01/21 08:20:43;;;;;;;0.63;0.30;;;;;;;;;;5047354;28;20025;-66
2022/01/21 08:23:09;;;;;;;0.35;0.20;;;;;;;;;;5049905;28;20021;-69
2022/01/21 08:25:35;;;;;;;0.20;0.10;;;;;;;;;;5051422;28;20036;-71
2022/01/21 08:28:00;;;;;;;1.00;0.20;;;;;;;;;;5046759;28;20062;-70
2022/01/21 08:30:25;;;;;;;0.30;0.20;;;;;;;;;;5052524;28;20740;-66
2022/01/21 08:32:50;;;;;;;1.20;0.20;;;;;;;;;;5051695;28;20364;-70
2022/01/21 08:35:15;;;;;;;0.30;0.22;;;;;;;;;;5050675;28;20323;-71
2022/01/21 08:37:41;;;;;;;0.80;0.30;;;;;;;;;;5046821;28;20041;-70
2022/01/21 08:40:06;;;;;;;0.63;0.30;;;;;;;;;;5048840;28;20029;-66
2022/01/21 08:42:31;;;;;;;2.55;0.20;;;;;;;;;;5050565;28;20028;-62
2022/01/21 08:44:57;;;;;;;0.70;0.10;;;;;;;;;;5050664;28;20017;-69
2022/01/21 08:47:22;;;;;;;1.27;0.30;;;;;;;;;;5049268;28;20035;-65
2022/01/21 08:49:49;;;;;;;1.08;0.20;;;;;;;;;;5053960;28;20246;-65
2022/01/21 08:52:19;;;;;;;3.28;0.20;;;;;;;;;;5051561;28;20487;-66
2022/01/21 08:54:45;;;;;;;0.20;0.20;;;;;;;;;;5051679;28;20013;-66
2022/01/21 08:57:10;;;;;;;0.25;0.15;;;;;;;;;;5059011;28;20028;-66
2022/01/21 08:59:35;;;;;;;0.20;0.20;;;;;;;;;;5049957;28;20443;-66
2022/01/21 09:02:01;;;;;;;1.10;0.50;;;;;;;;;;5050017;28;20028;-66
2022/01/21 09:04:26;;;;;;;0.65;0.20;;;;;;;;;;5050364;28;20052;-65
2022/01/21 09:06:51;;;;;;;0.50;0.23;;;;;;;;;;5050649;28;21366;-66
2022/01/21 09:09:16;;;;;;;1.00;0.40;;;;;;;;;;5051851;28;20254;-66
2022/01/21 09:11:41;;;;;;;0.20;0.20;;;;;;;;;;5051863;28;20262;-66
2022/01/21 09:14:07;;;;;;;0.52;0.20;;;;;;;;;;5050973;28;20017;-65
2022/01/21 09:16:32;;;;;;;0.17;0.17;;;;;;;;;;5051021;28;20021;-66
2022/01/21 09:18:59;;;;;;;0.10;0.10;;;;;;;;;;5051862;28;20017;-66
2022/01/21 09:21:26;;;;;;;0.52;0.20;;;;;;;;;;5051629;28;20048;-66
2022/01/21 09:23:52;;;;;;;0.60;0.25;;;;;;;;;;5052090;28;20024;-66
2022/01/21 09:26:19;;;;;;;0.20;0.10;;;;;;;;;;5051364;28;20091;-66
2022/01/21 09:28:44;;;;;;;0.15;0.15;;;;;;;;;;5051987;28;20021;-66
2022/01/21 09:31:10;;;;;;;0.43;0.10;;;;;;;;;;5052211;28;20032;-65
2022/01/21 09:33:35;;;;;;;0.60;0.10;;;;;;;;;;5052158;28;20039;-66
2022/01/21 09:36:00;;;;;;;0.30;0.20;;;;;;;;;;5052481;28;20060;-65
2022/01/21 09:38:26;;;;;;;0.27;0.20;;;;;;;;;;5052215;28;20103;-66
2022/01/21 09:40:52;;;;;;;0.20;0.15;;;;;;;;;;5052288;28;20246;-66
2022/01/21 09:43:18;;;;;;;0.20;0.10;;;;;;;;;;5064044;28;20081;-66
2022/01/21 09:45:47;;;;;;;0.63;0.10;;;;;;;;;;5051711;28;20033;-66
2022/01/21 09:48:13;;;;;;;0.40;0.25;;;;;;;;;;5052059;28;20020;-66
2022/01/21 09:50:40;;;;;;;1.00;0.15;;;;;;;;;;5052438;28;20009;-66
2022/01/21 09:53:06;;;;;;;1.35;0.40;;;;;;;;;;5051966;28;20025;-66
2022/01/21 09:55:31;;;;;;;0.70;0.20;;;;;;;;;;5051295;28;20070;-66
2022/01/21 09:57:57;;;;;;;0.20;0.20;;;;;;;;;;5050896;28;20075;-66
2022/01/21 10:00:24;;;;;;;0.32;0.30;;;;;;;;;;5050617;28;20037;-66
2022/01/21 10:02:49;;;;;;;0.88;0.40;;;;;;;;;;5051560;28;20036;-66
2022/01/21 10:05:15;;;;;;;0.55;0.20;;;;;;;;;;5051432;28;20389;-66
2022/01/21 10:07:42;;;;;;;0.20;0.17;;;;;;;;;;5052069;28;20051;-66
2022/01/21 10:10:08;;;;;;;0.45;0.10;;;;;;;;;;5050698;28;20104;-66
2022/01/21 10:12:35;;;;;;;0.25;0.22;;;;;;;;;;5051926;28;20018;-66
2022/01/21 10:15:01;;;;;;;0.00;0.00;;;;;;;;;;5050816;28;20071;-66
2022/01/21 10:17:26;;;;;;;0.77;0.20;;;;;;;;;;5051367;28;20017;-66
2022/01/21 10:19:52;;;;;;;0.20;0.20;;;;;;;;;;5050684;28;20025;-67
2022/01/21 10:22:26;;;;;;;0.30;0.20;;;;;;;;;;5049458;28;20028;-66
2022/01/21 10:24:53;;;;;;;0.57;0.20;;;;;;;;;;5051716;28;20369;-66
2022/01/21 10:27:26;;;;;;;0.43;0.20;;;;;;;;;;5048921;28;20053;-66
2022/01/21 10:29:51;;;;;;;0.22;0.20;;;;;;;;;;5050707;28;20380;-66
2022/01/21 10:32:30;;;;;;;0.85;0.20;;;;;;;;;;5046345;28;20100;-66
2022/01/21 10:34:55;;;;;;;1.25;0.30;;;;;;;;;;5049801;28;20511;-66
2022/01/21 10:37:22;;;;;;;0.20;0.20;;;;;;;;;;5049586;28;20028;-66
2022/01/21 10:40:08;;;;;;;0.57;0.17;;;;;;;;;;5051553;28;20013;-66
2022/01/21 10:42:33;;;;;;;0.30;0.13;;;;;;;;;;5051802;28;20083;-66
2022/01/21 10:44:59;;;;;;;0.65;0.35;;;;;;;;;;5050324;28;20460;-66
2022/01/21 10:47:26;;;;;;;0.20;0.20;;;;;;;;;;5054688;28;20465;-66
2022/01/21 10:50:17;;;;;;;0.20;0.20;;;;;;;;;;5050445;28;20022;-67
2022/01/21 10:52:45;;;;;;;0.25;0.20;;;;;;;;;;5049322;28;20075;-66
2022/01/21 10:55:30;;;;;;;0.20;0.20;;;;;;;;;;5042586;28;20060;-66
2022/01/21 10:58:05;;;;;;;0.20;0.20;;;;;;;;;;5040781;28;20364;-66
2022/01/21 11:00:30;;;;;;;0.40;0.13;;;;;;;;;;5053945;28;20503;-67
2022/01/21 11:02:55;;;;;;;0.40;0.30;;;;;;;;;;5055072;28;20021;-66
2022/01/21 11:05:20;;;;;;;0.60;0.33;;;;;;;;;;5054428;28;20369;-66
2022/01/21 11:07:47;;;;;;;0.10;0.00;;;;;;;;;;5052343;28;20644;-66
2022/01/21 11:10:33;;;;;;;0.30;0.30;;;;;;;;;;5054766;28;20372;-66
2022/01/21 11:12:59;;;;;;;1.77;0.20;;;;;;;;;;4998530;28;20204;-67
2022/01/21 11:15:24;;;;;;;0.35;0.20;;;;;;;;;;5009556;28;20521;-66
2022/01/21 11:17:58;;;;;;;0.60;0.22;;;;;;;;;;4995500;28;20533;-67
2022/01/21 11:20:31;;;;;;;0.10;0.10;;;;;;;;;;5008360;28;20034;-66
2022/01/21 11:22:57;;;;;;;0.15;0.15;;;;;;;;;;4993186;28;20034;-66
2022/01/21 11:25:41;;;;;;;0.30;0.20;;;;;;;;;;5002838;28;20042;-66
2022/01/21 11:28:06;;;;;;;0.70;0.20;;;;;;;;;;4999282;28;20058;-66
2022/01/21 11:30:32;;;;;;;0.47;0.20;;;;;;;;;;5008416;28;20026;-66
2022/01/21 11:32:57;;;;;;;0.30;0.17;;;;;;;;;;5012506;28;20350;-66
2022/01/21 11:35:22;;;;;;;0.50;0.25;;;;;;;;;;5011862;28;20359;-66
2022/01/21 11:37:48;;;;;;;0.32;0.13;;;;;;;;;;5002927;28;20053;-66
2022/01/21 11:40:13;;;;;;;0.73;0.20;;;;;;;;;;5011343;28;20109;-66
2022/01/21 11:42:38;;;;;;;1.17;0.43;;;;;;;;;;5003506;28;20110;-66
2022/01/21 11:45:18;;;;;;;1.10;0.35;;;;;;;;;;5011119;28;20259;-66
2022/01/21 11:48:49;;;;;;;0.20;0.20;;;;;;;;;;4997299;28;20069;-67
2022/01/21 11:50:35;;;;;;;0.30;0.20;;;;;;;;;;5036214;28;20093;-66
2022/01/21 11:53:00;;;;;;;0.60;0.40;;;;;;;;;;5059889;28;20024;-66
2022/01/21 11:55:30;;;;;;;0.40;0.37;;;;;;;;;;5061594;28;20613;-66
2022/01/21 11:58:14;;;;;;;0.22;0.15;;;;;;;;;;5058460;28;20025;-66
2022/01/21 12:00:40;;;;;;;0.20;0.20;;;;;;;;;;5054319;28;20021;-67
2022/01/21 12:03:05;;;;;;;0.70;0.38;;;;;;;;;;5052843;28;20095;-67
2022/01/21 12:05:30;;;;;;;0.57;0.30;;;;;;;;;;5053452;28;20540;-67
2022/01/21 12:07:58;;;;;;;0.30;0.30;;;;;;;;;;5053899;28;20025;-66
2022/01/21 12:10:25;;;;;;;0.45;0.45;;;;;;;;;;5050541;28;20361;-66
2022/01/21 12:13:00;;;;;;;0.30;0.22;;;;;;;;;;5054062;28;20020;-66
2022/01/21 12:15:30;;;;;;;0.22;0.10;;;;;;;;;;5051095;28;20625;-67
2022/01/21 12:18:31;;;;;;;0.28;0.10;;;;;;;;;;5052279;28;20033;-66
2022/01/21 12:21:04;;;;;;;0.28;0.15;;;;;;;;;;5050389;28;20024;-67
2022/01/21 12:23:31;;;;;;;0.32;0.10;;;;;;;;;;5052909;28;20050;-66
2022/01/21 12:26:08;;;;;;;0.22;0.20;;;;;;;;;;5046780;28;20460;-66
2022/01/21 12:28:33;;;;;;;0.40;0.40;;;;;;;;;;5050551;28;20108;-67
2022/01/21 12:30:59;;;;;;;0.30;0.28;;;;;;;;;;5050132;28;20100;-66
2022/01/21 12:33:44;;;;;;;1.07;0.63;;;;;;;;;;5062427;28;20021;-66
2022/01/21 12:36:10;;;;;;;0.43;0.20;;;;;;;;;;5051827;28;20312;-66
2022/01/21 12:41:23;;;;;;;0.37;0.30;;;;;;;;;;5062475;28;20029;-67
2022/01/21 12:43:49;;;;;;;0.20;0.20;;;;;;;;;;5054826;28;20086;-66
2022/01/21 12:46:31;;;;;;;0.40;0.30;;;;;;;;;;5063479;28;20013;-66
2022/01/21 12:48:58;;;;;;;0.28;0.20;;;;;;;;;;5051970;28;20024;-66
2022/01/21 12:56:43;;;;;;;0.35;0.20;;;;;;;;;;5054262;28;20023;-66
2022/01/21 12:59:14;;;;;;;0.38;0.17;;;;;;;;;;5062310;28;20108;-66
2022/01/21 13:01:39;;;;;;;0.30;0.10;;;;;;;;;;5058348;28;20027;-66
2022/01/21 13:04:25;;;;;;;0.15;0.10;;;;;;;;;;5053823;28;20017;-66
2022/01/21 13:06:55;;;;;;;0.40;0.17;;;;;;;;;;5072828;28;20028;-66
2022/01/21 13:09:31;;;;;;;0.22;0.10;;;;;;;;;;5072219;28;20418;-65
2022/01/21 13:12:04;;;;;;;0.68;0.20;;;;;;;;;;5060256;28;20027;-67
2022/01/21 13:17:23;;;;;;;0.20;0.20;;;;;;;;;;5052133;28;20025;-66
2022/01/21 13:19:52;;;;;;;0.30;0.22;;;;;;;;;;5044640;28;20408;-66
2022/01/21 13:22:32;;;;;;;0.22;0.20;;;;;;;;;;5052708;28;20029;-65
2022/01/21 13:25:08;;;;;;;0.90;0.30;;;;;;;;;;5055477;28;20075;-69
2022/01/21 13:27:34;;;;;;;2.25;0.40;;;;;;;;;;5072307;28;20055;-72
2022/01/21 13:30:02;;;;;;;2.40;0.68;;;;;;;;;;5062134;28;20411;-66
2022/01/21 13:32:27;;;;;;;2.28;0.45;;;;;;;;;;5050080;28;20511;-67
2022/01/21 13:35:04;;;;;;;0.50;0.30;;;;;;;;;;5049089;28;20025;-66
2022/01/21 13:37:29;;;;;;;0.30;0.30;;;;;;;;;;5049611;28;20323;-66
2022/01/21 13:39:54;;;;;;;0.20;0.20;;;;;;;;;;5050538;28;20079;-66
2022/01/21 13:42:23;;;;;;;0.30;0.30;;;;;;;;;;5051162;28;20597;-66
2022/01/21 13:44:52;;;;;;;0.20;0.15;;;;;;;;;;5052493;28;20096;-67
2022/01/21 13:47:23;;;;;;;4.45;0.30;;;;;;;;;;5051398;28;20051;-67
2022/01/21 13:49:49;;;;;;;0.25;0.20;;;;;;;;;;5052340;28;20017;-67
2022/01/21 13:52:14;;;;;;;0.28;0.20;;;;;;;;;;5052142;28;20510;-67
2022/01/21 13:54:43;;;;;;;0.28;0.22;;;;;;;;;;5052240;28;20498;-67
2022/01/21 13:57:09;;;;;;;1.17;0.10;;;;;;;;;;5052026;28;20025;-67
2022/01/21 13:59:41;;;;;;;0.90;0.32;;;;;;;;;;5051959;28;20028;-66
2022/01/21 14:02:14;;;;;;;0.28;0.20;;;;;;;;;;5052152;28;20377;-67
2022/01/21 14:04:39;;;;;;;0.40;0.10;;;;;;;;;;5051745;28;20049;-66
2022/01/21 14:07:23;;;;;;;0.88;0.30;;;;;;;;;;5050430;28;20036;-67
2022/01/21 14:09:48;;;;;;;0.10;0.10;;;;;;;;;;5050648;28;20460;-67
2022/01/21 14:12:13;;;;;;;0.73;0.20;;;;;;;;;;5051384;28;20066;-67
2022/01/21 14:14:39;;;;;;;0.73;0.33;;;;;;;;;;5050483;28;20266;-66
2022/01/21 14:17:04;;;;;;;1.15;0.40;;;;;;;;;;5051751;28;20575;-66
2022/01/21 14:19:29;;;;;;;0.47;0.40;;;;;;;;;;5051297;28;20136;-66
2022/01/21 14:22:03;;;;;;;0.28;0.20;;;;;;;;;;5050654;28;20052;-67
2022/01/21 14:24:28;;;;;;;0.63;0.30;;;;;;;;;;5050663;28;20462;-70
2022/01/21 14:27:02;;;;;;;2.65;0.65;;;;;;;;;;5048465;28;20048;-71
2022/01/21 14:29:27;;;;;;;;;;;;;;;;;;5051119;28;20021;-69
2022/01/21 14:31:54;;;;;;;0.20;0.15;;;;;;;;;;5051209;28;19920;-67
2022/01/21 14:34:19;;;;;;;0.10;0.10;;;;;;;;;;5052873;28;20049;-68
2022/01/21 14:37:01;;;;;;;1.45;0.82;;;;;;;;;;5055913;28;20102;-65
2022/01/21 14:39:26;;;;;;;1.95;0.45;;;;;;;;;;5054865;28;20469;-66
2022/01/21 14:41:53;;;;;;;1.00;0.30;;;;;;;;;;5055769;28;20104;-66
2022/01/21 14:44:37;;;;;;;0.52;0.25;;;;;;;;;;5054515;28;20335;-66
2022/01/21 14:47:04;;;;;;;2.28;0.63;;;;;;;;;;5055256;28;20029;-66
2022/01/21 14:49:30;;;;;;;0.30;0.10;;;;;;;;;;5055168;28;20480;-66
2022/01/21 14:52:33;;;;;;;0.25;0.10;;;;;;;;;;5055585;28;20025;-66
2022/01/21 14:54:46;;;;;;;1.60;0.40;;;;;;;;;;5054079;28;20021;-65
2022/01/21 14:57:11;;;;;;;0.57;0.10;;;;;;;;;;5054852;28;20021;-65
2022/01/21 14:59:49;;;;;;;1.33;0.30;;;;;;;;;;5055074;28;20491;-65
2022/01/21 15:02:14;;;;;;;0.73;0.40;;;;;;;;;;5055347;28;20465;-65
2022/01/21 15:04:40;;;;;;;0.40;0.25;;;;;;;;;;5054785;28;20126;-65
2022/01/21 15:07:06;;;;;;;1.40;0.40;;;;;;;;;;5054661;28;20403;-65
2022/01/21 15:09:31;;;;;;;0.65;0.30;;;;;;;;;;5054661;28;20067;-65
2022/01/21 15:12:10;;;;;;;0.40;0.20;;;;;;;;;;5055011;28;20468;-65
2022/01/21 15:14:43;;;;;;;1.05;0.30;;;;;;;;;;5054513;28;20298;-65
2022/01/21 15:17:11;;;;;;;0.30;0.22;;;;;;;;;;5054940;28;20399;-65
2022/01/21 15:19:38;;;;;;;0.20;0.10;;;;;;;;;;5054535;28;20043;-70
2022/01/21 15:22:08;;;;;;;0.10;0.10;;;;;;;;;;5046398;28;20017;-67
2022/01/21 15:24:33;;;;;;;2.20;0.10;;;;;;;;;;5054461;28;20472;-67
2022/01/21 15:26:58;;;;;;;0.47;0.15;;;;;;;;;;5054328;28;20112;-65
2022/01/21 15:29:25;;;;;;;0.47;0.13;;;;;;;;;;5057493;28;20487;-65
2022/01/21 15:31:50;;;;;;;0.30;0.20;;;;;;;;;;5054271;28;20269;-65
2022/01/21 15:34:15;;;;;;;0.73;0.10;;;;;;;;;;5054677;28;20530;-65
2022/01/21 15:36:41;;;;;;;0.40;0.30;;;;;;;;;;5054661;28;20354;-66
2022/01/21 15:39:06;;;;;;;0.32;0.10;;;;;;;;;;5053608;28;20032;-65